createdAt,value
2023-02-04T00:00:41.982Z,102787.66
2023-02-04T00:03:10.554Z,102785.22
2023-02-04T00:05:39.177Z,102782.75
2023-02-04T00:08:07.910Z,102795.97
2023-02-04T00:10:37.172Z,102804.94
2023-02-04T00:13:07.523Z,102797.88
2023-02-04T00:15:36.238Z,102804.56
2023-02-04T00:18:05.791Z,102799.31
2023-02-04T00:20:34.105Z,102799.41
2023-02-04T00:23:02.445Z,102806.53
2023-02-04T00:25:30.781Z,102794.69
2023-02-04T00:27:59.164Z,102796.53
2023-02-04T00:30:29.858Z,102803.25
2023-02-04T00:32:58.287Z,102800.59
2023-02-04T00:35:26.871Z,102799.41
2023-02-04T00:37:55.268Z,102800.75
2023-02-04T00:40:23.713Z,102811.69
2023-02-04T00:42:52.029Z,102807.81
2023-02-04T00:45:20.504Z,102803.34
2023-02-04T00:47:50.201Z,102800.19
2023-02-04T00:50:19.083Z,102800.84
2023-02-04T00:52:47.428Z,102806.56
2023-02-04T00:55:18.174Z,102805.16
2023-02-04T00:57:48.093Z,102798.38
2023-02-04T01:00:17.556Z,102799.84
2023-02-04T01:02:45.979Z,102811.22
2023-02-04T01:05:15.668Z,102813.88
2023-02-04T01:07:44.275Z,102817.84
2023-02-04T01:10:13.171Z,102821.75
2023-02-04T01:12:42.080Z,102823.13
2023-02-04T01:15:11.830Z,102829.72
2023-02-04T01:17:41.702Z,102825.34
2023-02-04T01:20:11.313Z,102830.13
2023-02-04T01:22:41.325Z,102823.53
2023-02-04T01:25:10.461Z,102824.06
2023-02-04T01:27:39.080Z,102837.50
2023-02-04T01:30:08.575Z,102839.91
2023-02-04T01:32:37.331Z,102839.66
2023-02-04T01:35:06.504Z,102835.16
2023-02-04T01:37:35.558Z,102836.88
2023-02-04T01:40:06.137Z,102846.81
2023-02-04T01:42:34.841Z,102857.38
2023-02-04T01:45:06.292Z,102866.19
2023-02-04T01:47:35.321Z,102862.25
2023-02-04T01:50:04.311Z,102863.41
2023-02-04T01:52:39.855Z,102870.53
2023-02-04T01:55:16.110Z,102872.34
2023-02-04T01:57:45.160Z,102872.16
2023-02-04T02:00:18.425Z,102874.53
2023-02-04T02:02:50.532Z,102871.59
2023-02-04T02:05:22.200Z,102873.78
2023-02-04T02:07:52.250Z,102866.94
2023-02-04T02:10:22.630Z,102873.19
2023-02-04T02:12:51.694Z,102875.97
2023-02-04T02:15:21.158Z,102865.06
2023-02-04T02:17:49.784Z,102874.53
2023-02-04T02:20:19.574Z,102875.88
2023-02-04T02:22:59.033Z,102883.56
2023-02-04T02:25:28.982Z,102886.84
2023-02-04T02:27:58.740Z,102882.44
2023-02-04T02:30:29.588Z,102897.22
2023-02-04T02:32:58.913Z,102894.56
2023-02-04T02:35:27.548Z,102893.38
2023-02-04T02:37:56.233Z,102893.44
2023-02-04T02:40:25.167Z,102900.72
2023-02-04T02:42:55.990Z,102896.75
2023-02-04T02:45:28.124Z,102902.44
2023-02-04T02:47:59.045Z,102904.09
2023-02-04T02:50:30.655Z,102902.66
2023-02-04T02:53:00.639Z,102903.16
2023-02-04T02:55:30.320Z,102909.88
2023-02-04T02:58:00.277Z,102906.06
2023-02-04T03:00:31.349Z,102910.47
2023-02-04T03:03:04.611Z,102911.16
2023-02-04T03:05:37.006Z,102914.09
2023-02-04T03:08:06.590Z,102908.94
2023-02-04T03:10:35.698Z,102914.94
2023-02-04T03:13:06.371Z,102920.63
2023-02-04T03:15:35.499Z,102925.03
2023-02-04T03:18:04.706Z,102931.06
2023-02-04T03:20:34.234Z,102920.38
2023-02-04T03:23:03.138Z,102926.38
2023-02-04T03:25:31.919Z,102918.50
2023-02-04T03:28:01.565Z,102926.78
2023-02-04T03:30:31.911Z,102927.91
2023-02-04T03:33:00.670Z,102926.66
2023-02-04T03:35:29.277Z,102930.28
2023-02-04T03:37:57.840Z,102940.59
2023-02-04T03:40:26.416Z,102946.50
2023-02-04T03:42:54.971Z,102946.69
2023-02-04T03:45:23.566Z,102946.69
2023-02-04T03:47:53.508Z,102945.81
2023-02-04T03:50:22.110Z,102943.91
2023-02-04T03:52:51.606Z,102952.00
2023-02-04T03:55:20.197Z,102938.50
2023-02-04T03:57:48.785Z,102938.25
2023-02-04T04:00:17.750Z,102938.25
2023-02-04T04:02:46.630Z,102953.56
2023-02-04T04:05:16.755Z,102941.50
2023-02-04T04:07:45.637Z,102942.38
2023-02-04T04:10:14.403Z,102940.50
2023-02-04T04:12:42.955Z,102938.25
2023-02-04T04:15:12.135Z,102950.00
2023-02-04T04:17:40.745Z,102952.41
2023-02-04T04:20:10.533Z,102963.47
2023-02-04T04:22:40.975Z,102966.03
2023-02-04T04:25:10.126Z,102970.13
2023-02-04T04:27:38.728Z,102980.88
2023-02-04T04:30:07.800Z,102967.53
2023-02-04T04:32:36.347Z,102967.09
2023-02-04T04:35:05.419Z,102966.81
2023-02-04T04:37:35.196Z,102975.28
2023-02-04T04:40:05.440Z,102978.19
2023-02-04T04:42:33.990Z,102978.88
2023-02-04T04:45:02.616Z,102981.84
2023-02-04T04:47:31.164Z,102978.38
2023-02-04T04:49:59.800Z,102990.41
2023-02-04T04:52:28.361Z,102981.34
2023-02-04T04:54:56.943Z,102984.75
2023-02-04T04:57:26.862Z,102980.94
2023-02-04T04:59:55.472Z,102990.13
2023-02-04T05:02:24.021Z,102990.78
2023-02-04T05:04:52.679Z,102998.53
2023-02-04T05:07:21.317Z,102993.38
2023-02-04T05:09:49.928Z,102998.03
2023-02-04T05:12:18.510Z,102994.22
2023-02-04T05:14:48.433Z,103005.44
2023-02-04T05:17:17.026Z,103006.41
2023-02-04T05:19:45.579Z,103009.09
2023-02-04T05:22:14.180Z,103007.53
2023-02-04T05:24:42.763Z,103022.16
2023-02-04T05:27:11.343Z,103022.97
2023-02-04T05:29:39.914Z,103014.69
2023-02-04T05:32:09.928Z,103022.59
2023-02-04T05:34:39.946Z,103026.91
2023-02-04T05:37:08.639Z,103024.50
2023-02-04T05:39:37.243Z,103035.72
2023-02-04T05:42:05.857Z,103028.50
2023-02-04T05:44:34.405Z,103038.19
2023-02-04T05:47:03.033Z,103037.47
2023-02-04T05:49:32.962Z,103037.78
2023-02-04T05:52:01.569Z,103043.72
2023-02-04T05:54:30.122Z,103044.38
2023-02-04T05:56:58.778Z,103045.06
2023-02-04T05:59:27.588Z,103049.91
2023-02-04T06:01:56.180Z,103048.19
2023-02-04T06:04:24.781Z,103056.63
2023-02-04T06:06:54.764Z,103051.28
2023-02-04T06:09:23.347Z,103060.44
2023-02-04T06:11:51.914Z,103062.72
2023-02-04T06:14:20.476Z,103059.75
2023-02-04T06:16:49.090Z,103061.84
2023-02-04T06:19:17.669Z,103057.00
2023-02-04T06:21:46.338Z,103059.09
2023-02-04T06:24:16.277Z,103061.50
2023-02-04T06:26:44.935Z,103061.66
2023-02-04T06:29:13.501Z,103077.75
2023-02-04T06:31:42.449Z,103071.38
2023-02-04T06:34:11.431Z,103073.06
2023-02-04T06:36:40.053Z,103070.50
2023-02-04T06:39:08.601Z,103074.78
2023-02-04T06:41:38.653Z,103068.41
2023-02-04T06:44:07.335Z,103074.97
2023-02-04T06:46:36.046Z,103067.75
2023-02-04T06:49:04.622Z,103077.25
2023-02-04T06:51:33.956Z,103077.75
2023-02-04T06:54:02.545Z,103081.56
2023-02-04T06:56:31.145Z,103078.78
2023-02-04T06:59:03.253Z,103076.03
2023-02-04T07:01:32.157Z,103083.63
2023-02-04T07:04:00.791Z,103093.63
2023-02-04T07:06:29.383Z,103088.31
2023-02-04T07:08:57.949Z,103097.44
2023-02-04T07:11:26.557Z,103102.13
2023-02-04T07:13:55.127Z,103102.47
2023-02-04T07:16:25.054Z,103104.53
2023-02-04T07:18:53.606Z,103105.25
2023-02-04T07:21:22.191Z,103102.66
2023-02-04T07:23:50.761Z,103111.81
2023-02-04T07:26:19.428Z,103109.91
2023-02-04T07:28:48.795Z,103112.84
2023-02-04T07:31:17.475Z,103110.56
2023-02-04T07:33:47.471Z,103116.28
2023-02-04T07:36:16.087Z,103113.88
2023-02-04T07:38:44.629Z,103114.72
2023-02-04T07:41:13.350Z,103125.09
2023-02-04T07:43:41.999Z,103123.19
2023-02-04T07:46:10.626Z,103124.69
2023-02-04T07:48:39.199Z,103126.94
2023-02-04T07:51:10.621Z,103131.44
2023-02-04T07:53:39.170Z,103140.25
2023-02-04T07:56:08.079Z,103142.81
2023-02-04T07:58:36.673Z,103141.09
2023-02-04T08:01:05.351Z,103146.78
2023-02-04T08:03:33.910Z,103154.22
2023-02-04T08:06:02.534Z,103151.09
2023-02-04T08:08:32.453Z,103158.81
2023-02-04T08:11:01.045Z,103162.94
2023-02-04T08:13:29.597Z,103166.75
2023-02-04T08:15:58.309Z,103172.66
2023-02-04T08:18:26.881Z,103170.56
2023-02-04T08:20:55.554Z,103190.78
2023-02-04T08:23:24.118Z,103186.97
2023-02-04T08:25:54.140Z,103178.38
2023-02-04T08:28:22.696Z,103179.38
2023-02-04T08:30:51.328Z,103181.28
2023-02-04T08:33:19.942Z,103188.19
2023-02-04T08:35:48.533Z,103196.81
2023-02-04T08:38:17.078Z,103197.53
2023-02-04T08:40:45.812Z,103196.75
2023-02-04T08:43:15.812Z,103195.91
2023-02-04T08:45:44.402Z,103200.88
2023-02-04T08:48:12.989Z,103205.22
2023-02-04T08:50:41.634Z,103209.13
2023-02-04T08:53:10.321Z,103213.16
2023-02-04T08:55:38.926Z,103213.88
2023-02-04T08:58:07.494Z,103211.94
2023-02-04T09:00:37.514Z,103218.19
2023-02-04T09:03:06.181Z,103223.03
2023-02-04T09:05:34.850Z,103224.88
2023-02-04T09:08:03.422Z,103229.47
2023-02-04T09:10:32.297Z,103230.19
2023-02-04T09:13:01.009Z,103226.19
2023-02-04T09:15:29.597Z,103230.00
2023-02-04T09:18:04.741Z,103229.31
2023-02-04T09:20:36.139Z,103232.78
2023-02-04T09:23:04.746Z,103227.53
2023-02-04T09:25:33.340Z,103229.16
2023-02-04T09:28:01.952Z,103229.16
2023-02-04T09:30:30.984Z,103233.09
2023-02-04T09:33:00.819Z,103237.59
2023-02-04T09:35:29.353Z,103242.84
2023-02-04T09:37:57.659Z,103237.28
2023-02-04T09:40:32.274Z,103232.41
2023-02-04T09:43:00.944Z,103239.88
2023-02-04T09:45:33.817Z,103239.09
2023-02-04T09:48:07.531Z,103238.50
2023-02-04T09:50:36.994Z,103246.50
2023-02-04T09:53:08.826Z,103239.88
2023-02-04T09:55:42.357Z,103248.41
2023-02-04T09:58:17.390Z,103261.03
2023-02-04T10:00:47.486Z,103260.44
2023-02-04T10:03:21.725Z,103259.38
2023-02-04T10:05:51.457Z,103257.78
2023-02-04T10:08:21.965Z,103259.63
2023-02-04T10:10:51.505Z,103262.97
2023-02-04T10:13:22.294Z,103260.97
2023-02-04T10:15:53.288Z,103269.41
2023-02-04T10:18:29.998Z,103265.53
2023-02-04T10:21:07.884Z,103261.22
2023-02-04T10:23:36.442Z,103269.13
2023-02-04T10:26:05.944Z,103263.25
2023-02-04T10:28:38.095Z,103261.97
2023-02-04T10:31:08.461Z,103273.50
2023-02-04T10:33:39.833Z,103264.88
2023-02-04T10:36:08.673Z,103266.63
2023-02-04T10:38:37.357Z,103269.13
2023-02-04T10:41:06.751Z,103271.03
2023-02-04T10:43:35.342Z,103274.25
2023-02-04T10:46:05.550Z,103271.31
2023-02-04T10:48:43.300Z,103274.38
2023-02-04T10:51:14.413Z,103268.25
2023-02-04T10:54:00.445Z,103272.66
2023-02-04T10:56:29.071Z,103269.53
2023-02-04T10:58:57.633Z,103268.75
2023-02-04T11:01:30.067Z,103270.59
2023-02-04T11:04:00.066Z,103271.78
2023-02-04T11:06:29.836Z,103273.91
2023-02-04T11:09:01.069Z,103273.84
2023-02-04T11:11:29.706Z,103278.44
2023-02-04T11:14:04.245Z,103277.28
2023-02-04T11:16:35.682Z,103278.06
2023-02-04T11:19:07.632Z,103274.66
2023-02-04T11:21:45.681Z,103273.06
2023-02-04T11:24:27.144Z,103267.19
2023-02-04T11:27:09.117Z,103265.16
2023-02-04T11:29:39.313Z,103263.38
2023-02-04T11:32:27.728Z,103266.59
2023-02-04T11:35:25.031Z,103275.13
2023-02-04T11:37:55.780Z,103268.16
2023-02-04T11:40:33.550Z,103273.53
2023-02-04T11:43:10.472Z,103276.63
2023-02-04T11:45:39.945Z,103269.06
2023-02-04T11:48:15.589Z,103269.69
2023-02-04T11:50:55.910Z,103276.06
2023-02-04T11:53:29.607Z,103279.22
2023-02-04T11:55:58.180Z,103277.09
2023-02-04T11:58:27.438Z,103270.22
2023-02-04T12:00:56.048Z,103274.94
2023-02-04T12:03:27.099Z,103272.00
2023-02-04T12:05:58.506Z,103273.31
2023-02-04T12:08:32.089Z,103276.91
2023-02-04T12:11:11.277Z,103274.81
2023-02-04T12:13:49.575Z,103279.03
2023-02-04T12:16:18.311Z,103280.09
2023-02-04T12:18:46.958Z,103276.00
2023-02-04T12:21:16.941Z,103282.72
2023-02-04T12:23:45.873Z,103280.69
2023-02-04T12:26:14.652Z,103286.09
2023-02-04T12:28:42.949Z,103277.59
2023-02-04T12:31:11.383Z,103285.00
2023-02-04T12:33:39.803Z,103278.63
2023-02-04T12:36:09.230Z,103283.09
2023-02-04T12:38:38.929Z,103274.66
2023-02-04T12:41:07.218Z,103272.25
2023-02-04T12:43:35.814Z,103279.66
2023-02-04T12:46:04.703Z,103277.91
2023-02-04T12:48:33.364Z,103291.16
2023-02-04T12:51:01.977Z,103282.88
2023-02-04T12:53:30.601Z,103286.84
2023-02-04T12:56:00.561Z,103281.75
2023-02-04T12:58:29.226Z,103287.13
2023-02-04T13:00:57.841Z,103288.47
2023-02-04T13:03:26.609Z,103286.56
2023-02-04T13:05:55.145Z,103278.34
2023-02-04T13:08:23.919Z,103279.34
2023-02-04T13:10:52.886Z,103274.66
2023-02-04T13:13:24.067Z,103275.81
2023-02-04T13:15:52.705Z,103266.63
2023-02-04T13:18:21.266Z,103266.41
2023-02-04T13:20:49.880Z,103267.66
2023-02-04T13:23:18.442Z,103274.91
2023-02-04T13:25:47.038Z,103263.94
2023-02-04T13:28:15.776Z,103258.97
2023-02-04T13:30:45.829Z,103259.81
2023-02-04T13:33:14.467Z,103261.16
2023-02-04T13:35:44.996Z,103262.31
2023-02-04T13:38:13.594Z,103253.34
2023-02-04T13:40:42.187Z,103262.13
2023-02-04T13:43:10.761Z,103247.78
2023-02-04T13:45:40.133Z,103241.59
2023-02-04T13:48:10.096Z,103254.03
2023-02-04T13:50:38.658Z,103251.69
2023-02-04T13:53:08.327Z,103250.25
2023-02-04T13:55:36.991Z,103245.06
2023-02-04T13:58:05.585Z,103247.41
2023-02-04T14:00:34.466Z,103250.88
2023-02-04T14:03:03.246Z,103253.94
2023-02-04T14:05:33.233Z,103247.78
2023-02-04T14:08:01.791Z,103249.50
2023-02-04T14:10:30.786Z,103255.84
2023-02-04T14:12:59.623Z,103249.84
2023-02-04T14:15:28.249Z,103244.94
2023-02-04T14:17:56.798Z,103254.47
2023-02-04T14:20:25.107Z,103248.00
2023-02-04T14:22:55.149Z,103255.50
2023-02-04T14:25:23.949Z,103259.66
2023-02-04T14:27:52.760Z,103258.59
2023-02-04T14:30:23.152Z,103269.06
2023-02-04T14:32:51.910Z,103268.50
2023-02-04T14:35:20.738Z,103271.88
2023-02-04T14:37:49.536Z,103270.31
2023-02-04T14:40:20.768Z,103270.66
2023-02-04T14:42:49.627Z,103270.69
2023-02-04T14:45:18.383Z,103268.44
2023-02-04T14:47:47.000Z,103264.53
2023-02-04T14:50:18.464Z,103264.53
2023-02-04T14:52:47.032Z,103266.03
2023-02-04T14:55:15.714Z,103265.78
2023-02-04T14:57:45.669Z,103274.94
2023-02-04T15:00:15.786Z,103275.28
2023-02-04T15:02:44.767Z,103272.34
2023-02-04T15:05:13.710Z,103279.44
2023-02-04T15:07:42.565Z,103280.34
2023-02-04T15:10:15.056Z,103275.63
2023-02-04T15:12:45.243Z,103277.00
2023-02-04T15:15:13.863Z,103273.44
2023-02-04T15:17:42.434Z,103265.25
2023-02-04T15:20:12.545Z,103270.78
2023-02-04T15:22:41.197Z,103278.94
2023-02-04T15:25:10.691Z,103282.25
2023-02-04T15:27:39.260Z,103280.34
2023-02-04T15:30:09.881Z,103280.72
2023-02-04T15:32:38.481Z,103282.09
2023-02-04T15:35:08.296Z,103278.69
2023-02-04T15:37:37.111Z,103278.56
2023-02-04T15:40:06.234Z,103284.81
2023-02-04T15:42:35.074Z,103280.63
2023-02-04T15:45:03.853Z,103286.63
2023-02-04T15:47:33.873Z,103285.44
2023-02-04T15:50:04.037Z,103287.50
2023-02-04T15:52:32.732Z,103290.09
2023-02-04T15:55:01.300Z,103295.78
2023-02-04T15:57:29.843Z,103295.44
2023-02-04T15:59:59.029Z,103298.41
2023-02-04T16:02:27.671Z,103297.88
2023-02-04T16:04:58.563Z,103299.13
2023-02-04T16:07:27.177Z,103306.22
2023-02-04T16:09:56.022Z,103303.50
2023-02-04T16:12:24.647Z,103304.03
2023-02-04T16:14:53.194Z,103313.22
2023-02-04T16:17:21.806Z,103312.31
2023-02-04T16:19:50.396Z,103308.19
2023-02-04T16:22:20.345Z,103311.63
2023-02-04T16:24:49.745Z,103309.72
2023-02-04T16:27:18.342Z,103314.03
2023-02-04T16:29:46.881Z,103310.41
2023-02-04T16:32:15.570Z,103319.75
2023-02-04T16:34:44.149Z,103314.91
2023-02-04T16:37:12.760Z,103319.06
2023-02-04T16:39:44.718Z,103328.38
2023-02-04T16:42:13.668Z,103320.41
2023-02-04T16:44:42.214Z,103324.00
2023-02-04T16:47:11.464Z,103339.91
2023-02-04T16:49:40.237Z,103346.59
2023-02-04T16:52:09.014Z,103340.41
2023-02-04T16:54:37.657Z,103351.31
2023-02-04T16:57:07.718Z,103356.66
2023-02-04T16:59:38.265Z,103353.88
2023-02-04T17:02:07.526Z,103363.22
2023-02-04T17:04:36.094Z,103357.69
2023-02-04T17:07:05.659Z,103357.34
2023-02-04T17:09:34.230Z,103360.78
2023-02-04T17:12:02.923Z,103362.44
2023-02-04T17:14:32.991Z,103352.97
2023-02-04T17:17:01.599Z,103348.16
2023-02-04T17:19:30.158Z,103353.53
2023-02-04T17:21:59.792Z,103357.66
2023-02-04T17:24:28.442Z,103355.97
2023-02-04T17:26:57.061Z,103361.88
2023-02-04T17:29:25.622Z,103354.25
2023-02-04T17:31:56.478Z,103341.28
2023-02-04T17:34:25.154Z,103344.72
2023-02-04T17:36:53.743Z,103346.44
2023-02-04T17:39:22.374Z,103337.28
2023-02-04T17:41:50.965Z,103336.44
2023-02-04T17:44:24.003Z,103339.34
2023-02-04T17:46:54.909Z,103345.28
2023-02-04T17:49:23.471Z,103338.19
2023-02-04T17:51:52.066Z,103339.91
2023-02-04T17:54:20.620Z,103351.66
2023-02-04T17:56:49.223Z,103350.81
2023-02-04T17:59:17.805Z,103354.44
2023-02-04T18:01:46.616Z,103354.78
2023-02-04T18:04:17.172Z,103356.50
2023-02-04T18:06:53.150Z,103349.75
2023-02-04T18:09:21.714Z,103357.50
2023-02-04T18:11:50.307Z,103358.38
2023-02-04T18:14:25.867Z,103368.06
2023-02-04T18:16:58.414Z,103364.59
2023-02-04T18:19:35.224Z,103361.47
2023-02-04T18:22:11.622Z,103358.88
2023-02-04T18:24:42.451Z,103357.66
2023-02-04T18:27:18.044Z,103361.78
2023-02-04T18:29:49.077Z,103356.44
2023-02-04T18:32:22.276Z,103355.59
2023-02-04T18:34:53.858Z,103351.81
2023-02-04T18:37:29.369Z,103352.88
2023-02-04T18:40:24.734Z,103356.66
2023-02-04T18:43:02.614Z,103355.09
2023-02-04T18:45:33.023Z,103352.69
2023-02-04T18:48:22.578Z,103352.69
2023-02-04T18:50:54.319Z,103350.41
2023-02-04T18:53:26.761Z,103350.75
2023-02-04T18:55:57.979Z,103350.75
2023-02-04T18:58:31.243Z,103346.63
2023-02-04T19:01:02.107Z,103350.97
2023-02-04T19:03:32.300Z,103348.91
2023-02-04T19:06:04.233Z,103344.41
2023-02-04T19:08:45.424Z,103336.97
2023-02-04T19:11:28.929Z,103340.09
2023-02-04T19:13:59.286Z,103341.47
2023-02-04T19:16:31.556Z,103339.75
2023-02-04T19:19:00.471Z,103337.84
2023-02-04T19:21:32.521Z,103340.78
2023-02-04T19:24:13.095Z,103341.84
2023-02-04T19:26:46.243Z,103344.41
2023-02-04T19:29:38.715Z,103341.66
2023-02-04T19:32:24.125Z,103356.88
2023-02-04T19:34:54.329Z,103359.09
2023-02-04T19:37:27.638Z,103359.63
2023-02-04T19:39:57.150Z,103366.53
2023-02-04T19:42:30.621Z,103366.22
2023-02-04T19:45:01.223Z,103361.34
2023-02-04T19:47:37.648Z,103361.84
2023-02-04T19:50:25.687Z,103356.03
2023-02-04T19:52:58.516Z,103351.16
2023-02-04T19:55:36.547Z,103362.72
2023-02-04T19:58:20.896Z,103365.16
2023-02-04T20:01:01.578Z,103368.94
2023-02-04T20:03:40.363Z,103359.25
2023-02-04T20:06:30.192Z,103371.19
2023-02-04T20:09:02.591Z,103369.81
2023-02-04T20:11:45.148Z,103370.69
2023-02-04T20:14:37.705Z,103370.47
2023-02-04T20:17:34.042Z,103372.94
2023-02-04T20:20:17.228Z,103375.88
2023-02-04T20:22:48.027Z,103372.44
2023-02-04T20:25:39.658Z,103363.63
2023-02-04T20:28:40.056Z,103358.81
2023-02-04T20:31:39.297Z,103361.34
2023-02-04T20:34:18.637Z,103360.34
2023-02-04T20:36:47.390Z,103366.41
2023-02-04T20:39:39.111Z,103357.22
2023-02-04T20:42:35.725Z,103356.88
2023-02-04T20:45:33.475Z,103352.41
2023-02-04T20:48:20.098Z,103344.25
2023-02-04T20:50:51.939Z,103341.34
2023-02-04T20:53:25.553Z,103339.59
2023-02-04T20:56:03.461Z,103351.69
2023-02-04T20:58:37.876Z,103349.09
2023-02-04T21:01:22.089Z,103349.97
2023-02-04T21:03:51.346Z,103340.13
2023-02-04T21:06:25.376Z,103337.53
2023-02-04T21:08:55.662Z,103337.19
2023-02-04T21:11:25.034Z,103340.78
2023-02-04T21:13:55.688Z,103339.94
2023-02-04T21:16:24.285Z,103354.09
2023-02-04T21:18:54.253Z,103356.50
2023-02-04T21:21:24.571Z,103362.88
2023-02-04T21:23:53.161Z,103360.47
2023-02-04T21:26:21.728Z,103365.84
2023-02-04T21:28:50.366Z,103357.38
2023-02-04T21:31:20.664Z,103364.47
2023-02-04T21:33:49.302Z,103362.56
2023-02-04T21:36:17.876Z,103351.72
2023-02-04T21:38:47.222Z,103362.41
2023-02-04T21:41:16.569Z,103361.38
2023-02-04T21:43:45.232Z,103355.66
2023-02-04T21:46:13.919Z,103356.19
2023-02-04T21:48:43.924Z,103357.75
2023-02-04T21:51:12.925Z,103355.69
2023-02-04T21:53:41.579Z,103357.25
2023-02-04T21:56:10.709Z,103355.84
2023-02-04T21:58:39.664Z,103358.59
2023-02-04T22:01:08.315Z,103352.22
2023-02-04T22:03:37.288Z,103350.13
2023-02-04T22:06:07.921Z,103353.09
2023-02-04T22:08:36.504Z,103349.63
2023-02-04T22:11:05.127Z,103353.44
2023-02-04T22:13:33.689Z,103349.97
2023-02-04T22:16:02.284Z,103338.59
2023-02-04T22:18:30.860Z,103338.59
2023-02-04T22:20:59.431Z,103334.75
2023-02-04T22:23:29.386Z,103334.06
2023-02-04T22:25:57.925Z,103335.81
2023-02-04T22:28:26.545Z,103323.84
2023-02-04T22:30:55.113Z,103327.66
2023-02-04T22:33:23.741Z,103327.31
2023-02-04T22:35:52.302Z,103332.16
2023-02-04T22:38:21.342Z,103332.66
2023-02-04T22:40:51.310Z,103333.72
2023-02-04T22:43:19.870Z,103332.34
2023-02-04T22:45:48.421Z,103337.88
2023-02-04T22:48:16.989Z,103340.63
2023-02-04T22:50:45.655Z,103328.38
2023-02-04T22:53:14.241Z,103338.75
2023-02-04T22:55:42.889Z,103338.56
2023-02-04T22:58:12.797Z,103344.25
2023-02-04T23:00:42.246Z,103355.16
2023-02-04T23:03:10.899Z,103354.28
2023-02-04T23:05:39.684Z,103357.72
2023-02-04T23:08:08.598Z,103361.38
2023-02-04T23:10:38.845Z,103365.88
2023-02-04T23:13:07.630Z,103361.88
2023-02-04T23:15:37.742Z,103356.03
2023-02-04T23:18:06.434Z,103354.81
2023-02-04T23:20:35.617Z,103358.97
2023-02-04T23:23:04.442Z,103350.00
2023-02-04T23:25:34.814Z,103352.56
2023-02-04T23:28:04.103Z,103353.09
2023-02-04T23:30:32.737Z,103351.38
2023-02-04T23:33:02.794Z,103363.63
2023-02-04T23:35:32.187Z,103353.25
2023-02-04T23:38:03.930Z,103355.84
2023-02-04T23:40:32.574Z,103362.94
2023-02-04T23:43:01.139Z,103350.16
2023-02-04T23:45:29.730Z,103353.97
2023-02-04T23:47:58.331Z,103356.75
2023-02-04T23:50:28.342Z,103353.28
2023-02-04T23:52:56.900Z,103344.63
2023-02-04T23:55:25.470Z,103341.38
2023-02-04T23:57:54.156Z,103326.84
